Morrisville, Pennsylvania
Current Conditions -  °F | °C
As of 4:53 PM on Monday 20 Oct 2014 (Local Time) from KTTN Reporting Station
Clear Clear  
Wind Chill: 59°   Ceiling: Unl
Heat Index: 59°   Visibility: 10mi
Dew Point: 36°   Wind: 8mph
Humidity: 42%   Direction: 210°SSW
Pressure: 29.98"   Gusts: NA
Location:  40.21°N, 74.79°W
Report Text: KTTN 202053Z 21007KT 10SM CLR 15/02 A2998 RMK AO2 SLP146 T01500022 56018
Loading
Personal Weather Stations






























Interactive Weather Map
Tropical Storm Tracking
New forecast layout! Learn more

10-Day Weather Forecast

Advertisements
Track Severe Weather on mobile